createdAt,value
2017-09-27T00:00:16.461Z,12.83
2017-09-27T00:02:43.401Z,15.03
2017-09-27T00:05:10.357Z,13.80
2017-09-27T00:07:37.301Z,16.17
2017-09-27T00:10:04.226Z,15.27
2017-09-27T00:12:31.198Z,15.77
2017-09-27T00:14:58.142Z,15.33
2017-09-27T00:17:25.085Z,14.73
2017-09-27T00:19:52.036Z,14.40
2017-09-27T00:22:18.976Z,14.17
2017-09-27T00:24:45.896Z,13.77
2017-09-27T00:27:12.789Z,14.73
2017-09-27T00:29:40.130Z,14.23
2017-09-27T00:32:07.067Z,14.23
2017-09-27T00:34:33.954Z,15.27
2017-09-27T00:37:00.981Z,13.47
2017-09-27T00:39:28.321Z,15.90
2017-09-27T00:41:55.210Z,14.87
2017-09-27T00:44:22.218Z,14.43
2017-09-27T00:46:49.501Z,13.90
2017-09-27T00:49:16.414Z,14.50
2017-09-27T00:51:43.302Z,15.93
2017-09-27T00:54:10.264Z,14.47
2017-09-27T00:56:37.154Z,14.73
2017-09-27T00:59:04.039Z,16.23
2017-09-27T01:01:31.046Z,14.50
2017-09-27T01:03:57.994Z,15.40
2017-09-27T01:06:24.882Z,16.63
2017-09-27T01:08:51.893Z,14.73
2017-09-27T01:11:19.199Z,14.80
2017-09-27T01:13:46.085Z,17.33
2017-09-27T01:16:13.398Z,16.10
2017-09-27T01:18:40.307Z,15.87
2017-09-27T01:21:07.630Z,16.10
2017-09-27T01:23:34.586Z,16.53
2017-09-27T01:26:01.475Z,16.93
2017-09-27T01:28:28.415Z,17.50
2017-09-27T01:30:55.301Z,15.50
2017-09-27T01:33:22.189Z,15.47
2017-09-27T01:35:49.510Z,17.60
2017-09-27T01:38:16.402Z,14.63
2017-09-27T01:40:43.318Z,14.90
2017-09-27T01:43:10.211Z,14.90
2017-09-27T01:45:37.122Z,17.10
2017-09-27T01:48:04.410Z,15.57
2017-09-27T01:50:31.330Z,14.53
2017-09-27T01:52:58.605Z,16.57
2017-09-27T01:55:25.496Z,15.93
2017-09-27T01:57:52.429Z,15.33
2017-09-27T02:00:19.318Z,16.30
2017-09-27T02:02:46.625Z,14.10
2017-09-27T02:05:13.534Z,16.27
2017-09-27T02:07:40.483Z,15.50
2017-09-27T02:10:07.493Z,15.07
2017-09-27T02:12:34.437Z,14.90
2017-09-27T02:15:01.390Z,14.63
2017-09-27T02:17:28.333Z,15.40
2017-09-27T02:19:55.237Z,16.50
2017-09-27T02:22:22.221Z,16.70
2017-09-27T02:24:49.117Z,16.87
2017-09-27T02:27:15.993Z,17.50
2017-09-27T02:29:42.957Z,15.77
2017-09-27T02:32:09.893Z,15.37
2017-09-27T02:34:36.780Z,15.17
2017-09-27T02:37:03.802Z,15.83
2017-09-27T02:39:30.687Z,16.30
2017-09-27T02:41:57.565Z,15.90
2017-09-27T02:44:24.566Z,14.80
2017-09-27T02:46:51.499Z,15.97
2017-09-27T02:49:18.838Z,14.77
2017-09-27T02:51:45.750Z,16.20
2017-09-27T02:54:12.634Z,14.50
2017-09-27T02:56:39.573Z,16.27
2017-09-27T02:59:06.532Z,16.87
2017-09-27T03:01:33.869Z,16.67
2017-09-27T03:04:00.823Z,15.83
2017-09-27T03:06:27.773Z,15.60
2017-09-27T03:08:54.722Z,16.50
2017-09-27T03:11:21.666Z,16.60
2017-09-27T03:13:48.569Z,14.80
2017-09-27T03:16:15.553Z,15.60
2017-09-27T03:18:42.497Z,14.70
2017-09-27T03:21:09.416Z,16.73
2017-09-27T03:23:36.397Z,17.37
2017-09-27T03:26:03.313Z,16.90
2017-09-27T03:28:30.228Z,15.83
2017-09-27T03:30:57.237Z,16.13
2017-09-27T03:33:24.595Z,14.93
2017-09-27T03:35:51.947Z,16.23
2017-09-27T03:38:18.893Z,16.27
2017-09-27T03:40:45.781Z,15.33
2017-09-27T03:43:12.785Z,15.13
2017-09-27T03:45:39.746Z,16.40
2017-09-27T03:48:07.070Z,16.90
2017-09-27T03:50:33.965Z,15.53
2017-09-27T03:53:00.854Z,17.07
2017-09-27T03:55:27.803Z,16.37
2017-09-27T03:57:54.769Z,15.90
2017-09-27T04:00:21.714Z,17.30
2017-09-27T04:02:48.673Z,16.00
2017-09-27T04:05:15.954Z,15.70
2017-09-27T04:07:42.849Z,14.97
2017-09-27T04:10:09.757Z,15.17
2017-09-27T04:12:36.761Z,13.47
2017-09-27T04:15:03.648Z,15.83
2017-09-27T04:17:30.559Z,15.23
2017-09-27T04:19:57.502Z,16.00
2017-09-27T04:22:24.447Z,15.50
2017-09-27T04:24:51.390Z,17.27
2017-09-27T04:27:18.277Z,17.17
2017-09-27T04:29:45.188Z,15.13
2017-09-27T04:32:12.493Z,17.50
2017-09-27T04:34:39.376Z,14.77
2017-09-27T04:37:06.326Z,17.43
2017-09-27T04:39:33.241Z,16.50
2017-09-27T04:42:00.126Z,15.60
2017-09-27T04:44:27.445Z,16.00
2017-09-27T04:46:54.417Z,15.40
2017-09-27T04:49:21.309Z,16.00
2017-09-27T04:51:48.297Z,15.90
2017-09-27T04:54:15.259Z,17.17
2017-09-27T04:56:42.163Z,16.70
2017-09-27T04:59:09.080Z,17.00
2017-09-27T05:01:36.003Z,16.20
2017-09-27T05:04:03.374Z,16.00
2017-09-27T05:06:30.686Z,17.43
2017-09-27T05:08:57.654Z,15.33
2017-09-27T05:11:24.603Z,17.37
2017-09-27T05:13:51.541Z,16.70
2017-09-27T05:16:18.433Z,17.40
2017-09-27T05:18:45.445Z,17.70
2017-09-27T05:21:12.325Z,15.90
2017-09-27T05:23:39.225Z,17.37
2017-09-27T05:26:06.235Z,17.67
2017-09-27T05:28:33.113Z,15.83
2017-09-27T05:31:00.064Z,16.37
2017-09-27T05:33:26.983Z,17.37
2017-09-27T05:35:53.959Z,16.77
2017-09-27T05:38:20.913Z,16.80
2017-09-27T05:40:47.801Z,17.07
2017-09-27T05:43:14.700Z,16.43
2017-09-27T05:45:41.645Z,16.20
2017-09-27T05:48:08.538Z,18.30
2017-09-27T05:50:35.422Z,16.77
2017-09-27T05:53:02.391Z,18.30
2017-09-27T05:55:29.676Z,15.80
2017-09-27T05:57:56.562Z,16.83
2017-09-27T06:00:23.487Z,16.20
2017-09-27T06:02:50.517Z,15.67
2017-09-27T06:05:17.402Z,18.33
2017-09-27T06:07:44.374Z,17.70
2017-09-27T06:10:11.281Z,16.00
2017-09-27T06:12:38.162Z,17.20
2017-09-27T06:15:05.514Z,17.87
2017-09-27T06:17:32.410Z,16.50
2017-09-27T06:19:59.333Z,16.93
2017-09-27T06:22:26.261Z,17.73
2017-09-27T06:24:53.550Z,16.20
2017-09-27T06:27:20.445Z,16.13
2017-09-27T06:29:47.361Z,15.90
2017-09-27T06:32:14.242Z,19.10
2017-09-27T06:34:41.206Z,17.80
2017-09-27T06:37:08.482Z,17.60
2017-09-27T06:39:35.385Z,17.20
2017-09-27T06:42:02.329Z,18.47
2017-09-27T06:44:29.221Z,15.87
2017-09-27T06:46:56.130Z,16.30
2017-09-27T06:49:23.169Z,15.50
2017-09-27T06:51:50.138Z,15.83
2017-09-27T06:54:17.038Z,19.30
2017-09-27T06:56:43.956Z,17.57
2017-09-27T06:59:10.857Z,16.33
2017-09-27T07:01:37.802Z,14.90
2017-09-27T07:04:04.697Z,16.60
2017-09-27T07:06:31.590Z,15.77
2017-09-27T07:08:58.556Z,16.87
2017-09-27T07:11:25.855Z,16.43
2017-09-27T07:13:52.841Z,16.37
2017-09-27T07:16:19.934Z,15.60
2017-09-27T07:18:46.838Z,17.07
2017-09-27T07:21:13.742Z,18.43
2017-09-27T07:23:40.662Z,17.23
2017-09-27T07:26:07.555Z,16.30
2017-09-27T07:28:34.442Z,18.50
2017-09-27T07:31:01.779Z,19.10
2017-09-27T07:33:28.661Z,19.10
2017-09-27T07:35:55.586Z,18.50
2017-09-27T07:38:22.474Z,17.80
2017-09-27T07:40:49.364Z,19.60
2017-09-27T07:43:16.709Z,18.63
2017-09-27T07:45:43.595Z,19.87
2017-09-27T07:48:10.752Z,20.43
2017-09-27T07:50:37.753Z,18.90
2017-09-27T07:53:04.711Z,18.00
2017-09-27T07:55:31.990Z,19.37
2017-09-27T07:57:59.001Z,19.00
2017-09-27T08:00:25.965Z,17.50
2017-09-27T08:02:53.414Z,18.30
2017-09-27T08:05:20.335Z,16.63
2017-09-27T08:07:47.307Z,16.53
2017-09-27T08:10:14.190Z,17.90
2017-09-27T08:12:41.110Z,18.17
2017-09-27T08:15:08.461Z,17.37
2017-09-27T08:17:35.354Z,17.27
2017-09-27T08:20:02.269Z,17.40
2017-09-27T08:22:29.231Z,16.80
2017-09-27T08:24:56.234Z,16.53
2017-09-27T08:27:23.123Z,17.43
2017-09-27T08:29:50.067Z,16.63
2017-09-27T08:32:17.081Z,17.43
2017-09-27T08:34:44.406Z,17.40
2017-09-27T08:37:11.377Z,18.50
2017-09-27T08:39:38.329Z,19.13
2017-09-27T08:42:05.681Z,18.73
2017-09-27T08:44:33.077Z,17.97
2017-09-27T08:46:59.994Z,16.73
2017-09-27T08:49:27.273Z,16.73
2017-09-27T08:51:54.173Z,16.53
2017-09-27T08:54:21.094Z,17.00
2017-09-27T08:56:47.986Z,17.40
2017-09-27T08:59:15.335Z,16.63
2017-09-27T09:01:42.257Z,16.90
2017-09-27T09:04:09.150Z,18.43
2017-09-27T09:06:36.056Z,18.23
2017-09-27T09:09:02.986Z,16.73
2017-09-27T09:11:29.869Z,17.03
2017-09-27T09:13:57.154Z,16.57
2017-09-27T09:16:24.161Z,16.80
2017-09-27T09:18:51.105Z,15.87
2017-09-27T09:21:18.057Z,16.30
2017-09-27T09:23:44.973Z,16.70
2017-09-27T09:26:11.953Z,16.47
2017-09-27T09:28:39.235Z,17.10
2017-09-27T09:31:06.254Z,18.00
2017-09-27T09:33:33.533Z,16.93
2017-09-27T09:36:00.452Z,17.70
2017-09-27T09:38:27.803Z,17.00
2017-09-27T09:40:54.747Z,17.50
2017-09-27T09:43:21.641Z,17.27
2017-09-27T09:45:48.637Z,17.67
2017-09-27T09:48:15.631Z,15.97
2017-09-27T09:50:42.515Z,16.67
2017-09-27T09:53:09.469Z,16.03
2017-09-27T09:55:36.472Z,16.67
2017-09-27T09:58:03.369Z,15.10
2017-09-27T10:00:30.371Z,16.07
2017-09-27T10:02:57.253Z,17.33
2017-09-27T10:05:24.146Z,16.73
2017-09-27T10:07:51.203Z,15.73
2017-09-27T10:10:18.105Z,17.63
2017-09-27T10:12:44.993Z,18.23
2017-09-27T10:15:11.998Z,16.87
2017-09-27T10:17:38.893Z,20.00
2017-09-27T10:20:05.832Z,18.10
2017-09-27T10:22:32.784Z,17.70
2017-09-27T10:24:59.669Z,18.80
2017-09-27T10:27:26.578Z,20.00
2017-09-27T10:29:53.522Z,19.47
2017-09-27T10:32:20.417Z,21.00
2017-09-27T10:34:47.362Z,19.03
2017-09-27T10:37:14.301Z,20.50
2017-09-27T10:39:41.264Z,18.80
2017-09-27T10:42:08.552Z,18.80
2017-09-27T10:44:35.559Z,19.20
2017-09-27T10:47:02.507Z,19.00
2017-09-27T10:49:29.397Z,20.23
2017-09-27T10:51:56.325Z,19.40
2017-09-27T10:54:23.246Z,20.13
2017-09-27T10:56:50.140Z,20.10
2017-09-27T10:59:17.141Z,18.70
2017-09-27T11:01:44.029Z,19.93
2017-09-27T11:04:11.025Z,22.30
2017-09-27T11:06:37.981Z,21.00
2017-09-27T11:09:05.375Z,23.63
2017-09-27T11:11:32.381Z,22.17
2017-09-27T11:13:59.330Z,24.43
2017-09-27T11:16:26.273Z,21.70
2017-09-27T11:18:53.201Z,23.27
2017-09-27T11:21:20.161Z,21.60
2017-09-27T11:23:47.048Z,24.60
2017-09-27T11:26:14.062Z,22.37
2017-09-27T11:28:40.959Z,24.70
2017-09-27T11:31:07.853Z,24.40
2017-09-27T11:33:34.782Z,23.47
2017-09-27T11:36:01.787Z,24.90
2017-09-27T11:38:28.694Z,24.00
2017-09-27T11:40:55.638Z,25.13
2017-09-27T11:43:22.581Z,22.73
2017-09-27T11:45:49.530Z,25.03
2017-09-27T11:48:16.478Z,25.70
2017-09-27T11:50:43.426Z,24.03
2017-09-27T11:53:10.777Z,23.00
2017-09-27T11:55:37.727Z,24.63
2017-09-27T11:58:04.618Z,24.10
2017-09-27T12:00:31.510Z,24.00
2017-09-27T12:02:58.461Z,23.10
2017-09-27T12:05:25.352Z,22.23
2017-09-27T12:07:52.274Z,21.70
2017-09-27T12:10:19.605Z,24.23
2017-09-27T12:12:46.553Z,24.17
2017-09-27T12:15:13.509Z,23.97
2017-09-27T12:17:40.858Z,22.70
2017-09-27T12:20:07.809Z,23.63
2017-09-27T12:22:34.749Z,21.00
2017-09-27T12:25:01.640Z,21.07
2017-09-27T12:27:28.542Z,19.97
2017-09-27T12:29:55.481Z,21.63
2017-09-27T12:32:22.385Z,21.97
2017-09-27T12:34:49.301Z,21.30
2017-09-27T12:37:16.585Z,22.33
2017-09-27T12:39:43.474Z,22.20
2017-09-27T12:42:10.394Z,23.40
2017-09-27T12:44:37.276Z,24.00
2017-09-27T12:47:04.566Z,23.97
2017-09-27T12:49:31.570Z,21.83
2017-09-27T12:51:58.463Z,21.07
2017-09-27T12:54:25.353Z,21.37
2017-09-27T12:56:52.277Z,21.67
2017-09-27T12:59:19.165Z,19.93
2017-09-27T13:01:46.502Z,21.20
2017-09-27T13:04:13.499Z,19.97
2017-09-27T13:06:40.404Z,20.47
2017-09-27T13:09:07.329Z,20.00
2017-09-27T13:11:34.327Z,19.67
2017-09-27T13:14:01.214Z,19.53
2017-09-27T13:16:28.107Z,20.00
2017-09-27T13:18:55.444Z,20.43
2017-09-27T13:21:22.328Z,18.80
2017-09-27T13:23:49.215Z,18.37
2017-09-27T13:26:16.178Z,20.60
2017-09-27T13:28:43.065Z,19.63
2017-09-27T13:31:09.965Z,20.07
2017-09-27T13:33:36.913Z,18.80
2017-09-27T13:36:03.801Z,17.43
2017-09-27T13:38:30.685Z,20.77
2017-09-27T13:40:57.645Z,19.30
2017-09-27T13:43:24.602Z,18.60
2017-09-27T13:45:51.541Z,20.63
2017-09-27T13:48:18.456Z,21.30
2017-09-27T13:50:45.428Z,22.20
2017-09-27T13:53:12.354Z,20.03
2017-09-27T13:55:39.245Z,21.10
2017-09-27T13:58:06.581Z,20.03
2017-09-27T14:00:33.504Z,18.63
2017-09-27T14:03:00.385Z,19.87
2017-09-27T14:05:27.734Z,21.00
2017-09-27T14:07:54.654Z,20.77
2017-09-27T14:10:21.636Z,20.27
2017-09-27T14:12:48.930Z,18.80
2017-09-27T14:15:15.930Z,18.00
2017-09-27T14:17:42.809Z,20.13
2017-09-27T14:20:09.706Z,18.70
2017-09-27T14:22:36.609Z,16.90
2017-09-27T14:25:03.512Z,18.70
2017-09-27T14:27:30.448Z,19.30
2017-09-27T14:29:57.334Z,18.87
2017-09-27T14:32:24.237Z,17.50
2017-09-27T14:34:51.165Z,17.83
2017-09-27T14:37:18.137Z,18.37
2017-09-27T14:39:45.022Z,18.47
2017-09-27T14:42:11.942Z,19.50
2017-09-27T14:44:39.224Z,18.20
2017-09-27T14:47:06.241Z,17.03
2017-09-27T14:49:33.525Z,17.33
2017-09-27T14:52:00.410Z,18.27
2017-09-27T14:54:27.333Z,19.83
2017-09-27T14:56:54.221Z,18.43
2017-09-27T14:59:21.161Z,18.73
2017-09-27T15:01:48.139Z,19.80
2017-09-27T15:04:15.470Z,19.20
2017-09-27T15:06:42.364Z,17.40
2017-09-27T15:09:09.300Z,17.33
2017-09-27T15:11:36.181Z,18.53
2017-09-27T15:14:03.112Z,17.30
2017-09-27T15:16:30.050Z,19.10
2017-09-27T15:18:56.929Z,16.20
2017-09-27T15:21:23.895Z,17.17
2017-09-27T15:23:50.829Z,16.40
2017-09-27T15:26:17.736Z,17.40
2017-09-27T15:28:44.739Z,17.00
2017-09-27T15:31:12.066Z,16.90
2017-09-27T15:33:38.958Z,17.50
2017-09-27T15:36:05.842Z,15.90
2017-09-27T15:38:32.801Z,16.50
2017-09-27T15:40:59.764Z,14.60
2017-09-27T15:43:26.718Z,17.00
2017-09-27T15:45:54.113Z,16.90
2017-09-27T15:48:21.018Z,14.60
2017-09-27T15:50:47.906Z,14.70
2017-09-27T15:53:14.911Z,13.80
2017-09-27T15:55:41.854Z,12.83
2017-09-27T15:58:08.750Z,13.50
2017-09-27T16:00:35.677Z,12.83
2017-09-27T16:03:02.582Z,14.40
2017-09-27T16:05:29.539Z,12.83
2017-09-27T16:07:56.461Z,12.53
2017-09-27T16:10:23.429Z,13.03
2017-09-27T16:12:50.389Z,12.30
2017-09-27T16:15:17.709Z,10.50
2017-09-27T16:17:44.685Z,10.20
2017-09-27T16:20:11.646Z,12.47
2017-09-27T16:22:38.986Z,12.23
2017-09-27T16:25:06.465Z,12.50
2017-09-27T16:27:33.798Z,12.30
2017-09-27T16:30:00.747Z,14.10
2017-09-27T16:32:27.690Z,12.93
2017-09-27T16:34:54.643Z,12.50
2017-09-27T16:37:21.585Z,13.47
2017-09-27T16:39:48.933Z,12.80
2017-09-27T16:42:15.818Z,13.03
2017-09-27T16:44:42.734Z,13.13
2017-09-27T16:47:09.654Z,13.90
2017-09-27T16:49:36.555Z,18.67
2017-09-27T16:52:03.446Z,23.43
2017-09-27T16:54:30.371Z,22.10
2017-09-27T16:56:57.353Z,19.30
2017-09-27T16:59:24.310Z,19.27
2017-09-27T17:01:51.296Z,18.87
2017-09-27T17:04:18.187Z,16.20
2017-09-27T17:06:45.149Z,14.60
2017-09-27T17:09:12.093Z,16.43
2017-09-27T17:11:38.981Z,15.97
2017-09-27T17:14:06.028Z,13.90
2017-09-27T17:16:32.934Z,14.90
2017-09-27T17:18:59.823Z,17.20
2017-09-27T17:21:26.843Z,16.63
2017-09-27T17:23:54.127Z,16.33
2017-09-27T17:26:21.018Z,16.60
2017-09-27T17:28:47.976Z,16.50
2017-09-27T17:31:14.926Z,17.57
2017-09-27T17:33:41.867Z,18.17
2017-09-27T17:36:08.798Z,18.20
2017-09-27T17:38:35.759Z,17.97
2017-09-27T17:41:02.702Z,17.50
2017-09-27T17:43:29.768Z,18.80
2017-09-27T17:45:57.086Z,20.83
2017-09-27T17:48:23.985Z,18.27
2017-09-27T17:50:50.889Z,20.50
2017-09-27T17:53:17.779Z,19.30
2017-09-27T17:55:44.795Z,20.53
2017-09-27T17:58:11.689Z,19.60
2017-09-27T18:00:38.681Z,19.90
2017-09-27T18:03:05.637Z,19.00
2017-09-27T18:05:32.577Z,19.83
2017-09-27T18:07:59.477Z,18.93
2017-09-27T18:10:26.475Z,19.20
2017-09-27T18:12:53.400Z,20.83
2017-09-27T18:15:20.361Z,19.57
2017-09-27T18:17:47.254Z,18.40
2017-09-27T18:20:14.265Z,18.23
2017-09-27T18:22:41.553Z,19.30
2017-09-27T18:25:08.601Z,18.77
2017-09-27T18:27:35.495Z,17.97
2017-09-27T18:30:02.389Z,17.93
2017-09-27T18:32:29.298Z,19.30
2017-09-27T18:34:56.191Z,18.23
2017-09-27T18:37:23.201Z,19.10
2017-09-27T18:39:50.545Z,17.20
2017-09-27T18:42:17.505Z,18.70
2017-09-27T18:44:44.442Z,18.57
2017-09-27T18:47:11.386Z,18.43
2017-09-27T18:49:38.315Z,18.70
2017-09-27T18:52:05.206Z,18.73
2017-09-27T18:54:32.209Z,17.50
2017-09-27T18:56:59.095Z,19.00
2017-09-27T18:59:26.005Z,19.00
2017-09-27T19:01:52.909Z,19.00
2017-09-27T19:04:19.910Z,18.53
2017-09-27T19:06:46.854Z,19.90
2017-09-27T19:09:13.741Z,19.00
2017-09-27T19:11:40.736Z,18.67
2017-09-27T19:14:07.744Z,19.47
2017-09-27T19:16:34.674Z,18.33
2017-09-27T19:19:01.586Z,18.43
2017-09-27T19:21:28.530Z,18.70
2017-09-27T19:23:55.477Z,18.63
2017-09-27T19:26:22.372Z,18.43
2017-09-27T19:28:49.257Z,20.87
2017-09-27T19:31:16.177Z,18.20
2017-09-27T19:33:43.170Z,19.50
2017-09-27T19:36:10.462Z,18.77
2017-09-27T19:38:37.469Z,17.77
2017-09-27T19:41:04.822Z,17.83
2017-09-27T19:43:31.768Z,18.30
2017-09-27T19:45:58.722Z,17.00
2017-09-27T19:48:25.661Z,18.30
2017-09-27T19:50:53.005Z,18.13
2017-09-27T19:53:19.904Z,17.00
2017-09-27T19:55:46.786Z,18.30
2017-09-27T19:58:13.713Z,23.70
2017-09-27T20:00:40.640Z,18.20
2017-09-27T20:03:07.541Z,16.70
2017-09-27T20:05:34.490Z,16.87
2017-09-27T20:08:01.818Z,18.40
2017-09-27T20:10:28.770Z,18.50
2017-09-27T20:12:55.654Z,18.50
2017-09-27T20:15:22.957Z,18.50
2017-09-27T20:17:49.937Z,17.77
2017-09-27T20:20:16.895Z,17.30
2017-09-27T20:22:44.238Z,18.17
2017-09-27T20:25:11.127Z,17.20
2017-09-27T20:27:38.035Z,17.10
2017-09-27T20:30:04.978Z,17.00
2017-09-27T20:32:31.921Z,17.10
2017-09-27T20:34:58.869Z,16.47
2017-09-27T20:37:25.761Z,17.50
2017-09-27T20:39:52.757Z,18.63
2017-09-27T20:42:19.716Z,17.40
2017-09-27T20:44:46.601Z,16.70
2017-09-27T20:47:13.601Z,16.80
2017-09-27T20:49:40.486Z,18.10
2017-09-27T20:52:07.374Z,18.20
2017-09-27T20:54:34.290Z,17.80
2017-09-27T20:57:01.218Z,19.37
2017-09-27T20:59:28.229Z,17.20
2017-09-27T21:01:55.178Z,17.40
2017-09-27T21:04:22.129Z,18.33
2017-09-27T21:06:49.022Z,17.80
2017-09-27T21:09:16.014Z,18.47
2017-09-27T21:11:42.933Z,17.70
2017-09-27T21:14:10.629Z,17.70
2017-09-27T21:16:37.573Z,17.17
2017-09-27T21:19:04.529Z,18.43
2017-09-27T21:21:31.881Z,17.70
2017-09-27T21:23:58.829Z,19.13
2017-09-27T21:26:26.222Z,17.33
2017-09-27T21:28:53.150Z,17.90
2017-09-27T21:31:20.434Z,19.77
2017-09-27T21:33:47.470Z,16.70
2017-09-27T21:36:14.387Z,15.80
2017-09-27T21:38:41.667Z,17.43
2017-09-27T21:41:08.573Z,17.43
2017-09-27T21:43:35.501Z,17.30
2017-09-27T21:46:02.398Z,17.40
2017-09-27T21:48:29.321Z,18.60
2017-09-27T21:50:56.606Z,17.60
2017-09-27T21:53:23.612Z,17.90
2017-09-27T21:55:50.574Z,17.90
2017-09-27T21:58:17.858Z,17.60
2017-09-27T22:00:44.861Z,17.63
2017-09-27T22:03:11.753Z,18.03
2017-09-27T22:05:38.753Z,17.23
2017-09-27T22:08:05.673Z,19.50
2017-09-27T22:10:32.560Z,17.10
2017-09-27T22:12:59.916Z,19.33
2017-09-27T22:15:27.265Z,16.57
2017-09-27T22:17:54.549Z,17.50
2017-09-27T22:20:21.466Z,17.60
2017-09-27T22:22:48.818Z,18.37
2017-09-27T22:25:15.777Z,18.50
2017-09-27T22:27:43.217Z,17.30
2017-09-27T22:30:10.171Z,18.80
2017-09-27T22:32:37.057Z,20.30
2017-09-27T22:35:04.846Z,17.83
2017-09-27T22:37:31.762Z,17.90
2017-09-27T22:39:58.674Z,18.60
2017-09-27T22:42:26.006Z,18.63
2017-09-27T22:44:52.921Z,18.37
2017-09-27T22:47:19.923Z,17.23
2017-09-27T22:49:46.846Z,17.70
2017-09-27T22:52:13.731Z,18.47
2017-09-27T22:54:41.049Z,17.67
2017-09-27T22:57:08.067Z,18.20
2017-09-27T22:59:35.089Z,18.00
2017-09-27T23:02:01.972Z,18.57
2017-09-27T23:04:28.950Z,19.23
2017-09-27T23:06:55.898Z,17.13
2017-09-27T23:09:22.869Z,18.67
2017-09-27T23:11:50.170Z,17.53
2017-09-27T23:14:17.147Z,18.77
2017-09-27T23:16:44.085Z,18.80
2017-09-27T23:19:11.045Z,17.33
2017-09-27T23:21:37.958Z,18.80
2017-09-27T23:24:04.845Z,18.77
2017-09-27T23:26:32.181Z,18.13
2017-09-27T23:28:59.134Z,19.10
2017-09-27T23:31:26.498Z,19.57
2017-09-27T23:33:53.777Z,19.30
2017-09-27T23:36:20.691Z,18.23
2017-09-27T23:38:48.013Z,18.50
2017-09-27T23:41:14.999Z,17.90
2017-09-27T23:43:42.309Z,18.50
2017-09-27T23:46:09.301Z,17.83
2017-09-27T23:48:36.633Z,18.33
2017-09-27T23:51:03.534Z,18.87
2017-09-27T23:53:30.446Z,20.13
2017-09-27T23:55:57.393Z,20.17
2017-09-27T23:58:24.696Z,18.03
